createdAt,value
2022-08-03T00:00:26.632Z,90.90
2022-08-03T00:02:53.882Z,90.80
2022-08-03T00:05:20.911Z,90.90
2022-08-03T00:07:49.394Z,90.20
2022-08-03T00:10:17.255Z,90.60
2022-08-03T00:12:44.125Z,90.80
2022-08-03T00:15:12.319Z,90.20
2022-08-03T00:17:52.817Z,90.50
2022-08-03T00:20:21.352Z,90.50
2022-08-03T00:22:48.252Z,90.70
2022-08-03T00:25:15.058Z,90.60
2022-08-03T00:27:41.937Z,91.00
2022-08-03T00:30:09.067Z,90.90
2022-08-03T00:32:35.852Z,91.50
2022-08-03T00:35:08.291Z,91.70
2022-08-03T00:37:41.401Z,91.60
2022-08-03T00:40:11.136Z,91.50
2022-08-03T00:42:47.736Z,91.60
2022-08-03T00:45:14.735Z,91.40
2022-08-03T00:47:41.491Z,91.50
2022-08-03T00:50:08.532Z,91.60
2022-08-03T00:52:36.269Z,91.70
2022-08-03T00:55:04.316Z,91.80
2022-08-03T00:57:32.728Z,91.70
2022-08-03T01:00:00.277Z,91.80
2022-08-03T01:02:30.771Z,91.70
2022-08-03T01:04:57.458Z,91.60
2022-08-03T01:07:37.819Z,91.80
2022-08-03T01:10:20.406Z,91.70
2022-08-03T01:14:01.528Z,91.80
2022-08-03T01:16:17.014Z,91.80
2022-08-03T01:19:00.226Z,91.80
2022-08-03T01:21:28.847Z,91.70
2022-08-03T01:24:19.423Z,91.90
2022-08-03T01:27:01.064Z,91.80
2022-08-03T01:29:32.835Z,91.90
2022-08-03T01:32:59.326Z,92.00
2022-08-03T01:35:03.313Z,92.00
2022-08-03T01:37:39.681Z,91.40
2022-08-03T01:40:09.178Z,92.10
2022-08-03T01:42:37.639Z,91.90
2022-08-03T01:45:05.886Z,92.20
2022-08-03T01:47:33.553Z,92.00
2022-08-03T01:50:02.295Z,92.30
2022-08-03T01:52:31.245Z,92.20
2022-08-03T01:54:58.926Z,92.10
2022-08-03T01:57:27.846Z,92.30
2022-08-03T01:59:56.597Z,92.30
2022-08-03T02:02:34.187Z,92.30
2022-08-03T02:05:03.139Z,92.00
2022-08-03T02:07:31.975Z,91.90
2022-08-03T02:10:00.160Z,92.50
2022-08-03T02:12:28.539Z,92.70
2022-08-03T02:14:56.605Z,92.50
2022-08-03T02:17:39.088Z,92.50
2022-08-03T02:20:09.250Z,91.80
2022-08-03T02:22:39.177Z,92.80
2022-08-03T02:25:07.928Z,92.60
2022-08-03T02:27:39.380Z,92.70
2022-08-03T02:30:10.851Z,92.70
2022-08-03T02:32:40.633Z,92.80
2022-08-03T02:35:11.725Z,92.60
2022-08-03T02:37:44.991Z,92.90
2022-08-03T02:40:18.904Z,92.70
2022-08-03T02:42:49.341Z,93.40
2022-08-03T02:45:18.314Z,92.80
2022-08-03T02:47:53.952Z,93.60
2022-08-03T02:50:23.233Z,93.40
2022-08-03T02:52:51.113Z,93.30
2022-08-03T02:55:19.706Z,92.60
2022-08-03T02:57:48.216Z,92.40
2022-08-03T03:00:19.414Z,92.50
2022-08-03T03:03:00.485Z,92.90
2022-08-03T03:05:56.194Z,93.10
2022-08-03T03:08:18.612Z,93.30
2022-08-03T03:10:46.522Z,92.50
2022-08-03T03:13:16.218Z,93.30
2022-08-03T03:15:45.382Z,93.30
2022-08-03T03:18:16.770Z,93.00
2022-08-03T03:20:46.351Z,93.00
2022-08-03T03:23:13.930Z,93.50
2022-08-03T03:25:41.581Z,93.60
2022-08-03T03:28:08.335Z,93.70
2022-08-03T03:30:35.185Z,93.50
2022-08-03T03:33:02.936Z,93.10
2022-08-03T03:35:38.745Z,93.80
2022-08-03T03:38:06.895Z,93.70
2022-08-03T03:40:35.794Z,93.10
2022-08-03T03:43:03.205Z,93.10
2022-08-03T03:45:31.639Z,92.90
2022-08-03T03:48:00.629Z,93.10
2022-08-03T03:50:32.174Z,93.30
2022-08-03T03:52:59.363Z,93.30
2022-08-03T03:55:26.166Z,93.90
2022-08-03T03:57:53.073Z,93.80
2022-08-03T04:00:20.266Z,94.40
2022-08-03T04:02:47.523Z,93.90
2022-08-03T04:05:34.166Z,93.60
2022-08-03T04:08:27.526Z,92.60
2022-08-03T04:11:18.325Z,93.60
2022-08-03T04:13:52.548Z,93.20
2022-08-03T04:16:24.752Z,93.70
2022-08-03T04:18:56.557Z,93.80
2022-08-03T04:21:24.106Z,94.20
2022-08-03T04:23:54.977Z,94.10
2022-08-03T04:26:24.624Z,94.40
2022-08-03T04:28:51.958Z,94.30
2022-08-03T04:31:22.181Z,93.70
2022-08-03T04:33:52.256Z,93.60
2022-08-03T04:36:23.582Z,93.10
2022-08-03T04:39:00.255Z,93.70
2022-08-03T04:41:28.187Z,93.10
2022-08-03T04:43:57.956Z,92.90
2022-08-03T04:46:29.440Z,93.50
2022-08-03T04:48:57.230Z,93.40
2022-08-03T04:51:24.753Z,94.10
2022-08-03T04:53:53.017Z,93.70
2022-08-03T04:56:19.868Z,93.70
2022-08-03T04:58:46.726Z,94.30
2022-08-03T05:01:13.516Z,93.50
2022-08-03T05:03:44.430Z,94.00
2022-08-03T05:06:11.768Z,94.00
2022-08-03T05:08:41.209Z,93.70
2022-08-03T05:11:13.298Z,93.60
2022-08-03T05:13:39.986Z,93.90
2022-08-03T05:16:06.800Z,93.70
2022-08-03T05:18:33.674Z,93.70
2022-08-03T05:21:00.396Z,93.50
2022-08-03T05:23:27.195Z,94.00
2022-08-03T05:25:53.895Z,93.70
2022-08-03T05:28:20.710Z,93.80
2022-08-03T05:30:47.585Z,94.20
2022-08-03T05:33:14.541Z,93.90
2022-08-03T05:36:00.766Z,93.50
2022-08-03T05:38:33.179Z,93.80
2022-08-03T05:41:21.813Z,93.20
2022-08-03T05:43:48.273Z,94.20
2022-08-03T05:46:15.238Z,94.50
2022-08-03T05:48:42.879Z,94.50
2022-08-03T05:51:13.756Z,94.20
2022-08-03T05:53:42.074Z,93.70
2022-08-03T05:56:14.172Z,93.20
2022-08-03T05:58:46.915Z,92.90
2022-08-03T06:01:14.839Z,92.60
2022-08-03T06:03:41.775Z,92.30
2022-08-03T06:06:08.722Z,91.70
2022-08-03T06:08:35.489Z,91.60
2022-08-03T06:11:02.326Z,90.90
2022-08-03T06:13:29.804Z,91.00
2022-08-03T06:15:58.607Z,91.70
2022-08-03T06:18:25.349Z,91.70
2022-08-03T06:20:52.923Z,90.30
2022-08-03T06:23:19.993Z,90.20
2022-08-03T06:25:47.248Z,90.20
2022-08-03T06:28:42.355Z,90.40
2022-08-03T06:31:02.023Z,90.20
2022-08-03T06:34:30.651Z,89.80
2022-08-03T06:36:18.510Z,88.90
2022-08-03T06:38:45.333Z,89.20
2022-08-03T06:41:12.064Z,87.60
2022-08-03T06:44:03.148Z,88.40
2022-08-03T06:46:25.917Z,88.00
2022-08-03T06:48:53.161Z,88.30
2022-08-03T06:51:19.965Z,87.10
2022-08-03T06:53:46.705Z,88.80
2022-08-03T06:56:13.506Z,85.70
2022-08-03T06:58:40.365Z,85.80
2022-08-03T07:01:07.284Z,86.80
2022-08-03T07:03:34.016Z,86.20
2022-08-03T07:06:03.500Z,88.80
2022-08-03T07:08:34.215Z,86.80
2022-08-03T07:11:01.596Z,85.90
2022-08-03T07:13:28.632Z,84.50
2022-08-03T07:15:56.543Z,85.90
2022-08-03T07:18:29.343Z,84.90
2022-08-03T07:20:57.241Z,85.50
2022-08-03T07:23:24.174Z,85.60
2022-08-03T07:25:51.108Z,85.10
2022-08-03T07:28:18.241Z,85.30
2022-08-03T07:30:45.116Z,86.20
2022-08-03T07:33:12.958Z,85.80
2022-08-03T07:35:40.761Z,86.30
2022-08-03T07:38:07.520Z,84.50
2022-08-03T07:40:34.802Z,84.10
2022-08-03T07:43:03.282Z,84.60
2022-08-03T07:45:31.220Z,84.20
2022-08-03T07:47:57.994Z,83.80
2022-08-03T07:50:24.753Z,83.70
2022-08-03T07:52:53.122Z,84.50
2022-08-03T07:55:22.163Z,85.10
2022-08-03T07:58:02.245Z,83.60
2022-08-03T08:00:28.950Z,83.20
2022-08-03T08:02:55.712Z,84.20
2022-08-03T08:05:22.646Z,84.60
2022-08-03T08:07:51.743Z,84.20
2022-08-03T08:10:18.849Z,85.20
2022-08-03T08:12:46.278Z,84.20
2022-08-03T08:15:13.165Z,84.90
2022-08-03T08:18:01.051Z,84.90
2022-08-03T08:20:34.269Z,85.10
2022-08-03T08:23:13.910Z,84.70
2022-08-03T08:25:54.329Z,83.30
2022-08-03T08:28:31.080Z,83.50
2022-08-03T08:31:00.114Z,83.20
2022-08-03T08:33:37.264Z,82.00
2022-08-03T08:36:13.386Z,83.80
2022-08-03T08:38:42.707Z,84.00
2022-08-03T08:41:11.274Z,84.50
2022-08-03T08:43:38.161Z,84.50
2022-08-03T08:46:08.273Z,83.20
2022-08-03T08:48:36.197Z,83.10
2022-08-03T08:51:03.450Z,84.20
2022-08-03T08:53:32.767Z,83.90
2022-08-03T08:56:02.211Z,83.70
2022-08-03T08:58:31.312Z,83.60
2022-08-03T09:00:58.149Z,84.20
2022-08-03T09:03:29.521Z,83.10
2022-08-03T09:05:58.800Z,84.00
2022-08-03T09:08:26.163Z,83.60
2022-08-03T09:10:52.908Z,83.60
2022-08-03T09:13:19.827Z,84.40
2022-08-03T09:16:00.600Z,85.10
2022-08-03T09:18:32.561Z,83.00
2022-08-03T09:21:32.151Z,83.70
2022-08-03T09:24:03.272Z,84.50
2022-08-03T09:26:31.938Z,83.20
2022-08-03T09:29:14.609Z,82.70
2022-08-03T09:31:47.006Z,83.00
2022-08-03T09:34:17.854Z,83.50
2022-08-03T09:36:50.434Z,83.40
2022-08-03T09:39:41.770Z,84.00
2022-08-03T09:42:23.757Z,84.20
2022-08-03T09:44:51.786Z,82.30
2022-08-03T09:47:33.079Z,83.00
2022-08-03T09:50:09.193Z,83.90
2022-08-03T09:52:49.609Z,83.80
2022-08-03T09:56:32.552Z,83.70
2022-08-03T09:58:09.425Z,82.70
2022-08-03T10:00:56.143Z,84.30
2022-08-03T10:03:24.120Z,82.60
2022-08-03T10:05:53.020Z,82.90
2022-08-03T10:08:23.161Z,83.40
2022-08-03T10:10:54.001Z,82.60
2022-08-03T10:13:22.227Z,83.00
2022-08-03T10:16:22.646Z,82.20
2022-08-03T10:18:36.565Z,82.00
2022-08-03T10:21:14.287Z,82.70
2022-08-03T10:23:41.908Z,81.50
2022-08-03T10:26:13.151Z,81.30
2022-08-03T10:28:47.275Z,81.20
2022-08-03T10:31:18.318Z,81.90
2022-08-03T10:33:52.867Z,81.20
2022-08-03T10:36:31.151Z,81.50
2022-08-03T10:39:00.227Z,81.60
2022-08-03T10:41:38.954Z,81.60
2022-08-03T10:44:17.288Z,79.70
2022-08-03T10:46:45.432Z,81.10
2022-08-03T10:49:33.599Z,80.80
2022-08-03T10:52:13.732Z,78.70
2022-08-03T10:55:10.089Z,80.30
2022-08-03T10:57:49.990Z,81.00
2022-08-03T11:00:24.963Z,80.90
2022-08-03T11:03:16.117Z,78.70
2022-08-03T11:05:49.252Z,78.10
2022-08-03T11:08:27.858Z,78.50
2022-08-03T11:10:57.170Z,79.70
2022-08-03T11:13:26.180Z,79.80
2022-08-03T11:15:59.755Z,78.70
2022-08-03T11:18:28.736Z,79.30
2022-08-03T11:20:57.729Z,79.40
2022-08-03T11:24:04.746Z,79.10
2022-08-03T11:26:34.181Z,79.20
2022-08-03T11:29:31.176Z,78.90
2022-08-03T11:31:58.213Z,80.20
2022-08-03T11:34:25.538Z,79.90
2022-08-03T11:37:19.555Z,79.00
2022-08-03T11:39:48.410Z,80.50
2022-08-03T11:42:24.668Z,79.00
2022-08-03T11:44:52.747Z,79.00
2022-08-03T11:47:21.801Z,78.00
2022-08-03T11:49:50.204Z,80.10
2022-08-03T11:52:19.535Z,76.90
2022-08-03T11:54:56.598Z,79.20
2022-08-03T11:59:01.120Z,75.30
2022-08-03T12:00:27.255Z,79.10
2022-08-03T12:02:56.401Z,80.00
2022-08-03T12:05:37.533Z,76.00
2022-08-03T12:08:06.813Z,77.40
2022-08-03T12:10:34.974Z,78.30
2022-08-03T12:13:05.861Z,74.20
2022-08-03T12:15:54.694Z,77.50
2022-08-03T12:18:23.141Z,74.50
2022-08-03T12:20:52.364Z,74.70
2022-08-03T12:23:20.603Z,73.30
2022-08-03T12:25:48.229Z,75.90
2022-08-03T12:28:35.963Z,73.50
2022-08-03T12:31:07.545Z,71.10
2022-08-03T12:33:59.159Z,74.40
2022-08-03T12:36:26.867Z,78.30
2022-08-03T12:38:59.140Z,76.80
2022-08-03T12:41:44.138Z,78.20
2022-08-03T12:44:10.934Z,73.00
2022-08-03T12:46:43.939Z,74.30
2022-08-03T12:49:19.129Z,77.10
2022-08-03T12:51:45.911Z,72.40
2022-08-03T12:54:24.261Z,74.20
2022-08-03T12:57:08.347Z,72.00
2022-08-03T12:59:49.879Z,74.80
2022-08-03T13:02:23.624Z,75.30
2022-08-03T13:04:51.217Z,74.20
2022-08-03T13:07:19.537Z,75.00
2022-08-03T13:09:47.787Z,74.70
2022-08-03T13:12:21.116Z,76.20
2022-08-03T13:14:54.905Z,75.10
2022-08-03T13:17:22.001Z,76.10
2022-08-03T13:19:49.609Z,75.20
2022-08-03T13:22:27.343Z,76.30
2022-08-03T13:24:56.633Z,75.30
2022-08-03T13:28:05.137Z,76.40
2022-08-03T13:30:24.173Z,76.50
2022-08-03T13:32:58.726Z,75.90
2022-08-03T13:35:25.759Z,77.70
2022-08-03T13:37:52.553Z,77.20
2022-08-03T13:40:36.753Z,77.30
2022-08-03T13:43:08.709Z,76.00
2022-08-03T13:45:35.501Z,76.50
2022-08-03T13:48:02.412Z,77.70
2022-08-03T13:50:30.105Z,77.10
2022-08-03T13:52:57.508Z,77.00
2022-08-03T13:55:24.470Z,76.80
2022-08-03T13:58:04.379Z,77.00
2022-08-03T14:00:34.303Z,76.50
2022-08-03T14:03:07.933Z,74.90
2022-08-03T14:05:40.222Z,75.30
2022-08-03T14:08:07.556Z,77.50
2022-08-03T14:10:40.362Z,76.00
2022-08-03T14:13:07.329Z,75.70
2022-08-03T14:15:38.259Z,74.40
2022-08-03T14:18:07.450Z,76.50
2022-08-03T14:20:47.883Z,76.10
2022-08-03T14:23:19.221Z,75.30
2022-08-03T14:26:20.321Z,75.70
2022-08-03T14:28:47.120Z,74.00
2022-08-03T14:32:10.975Z,73.70
2022-08-03T14:34:02.929Z,74.80
2022-08-03T14:36:29.747Z,76.40
2022-08-03T14:39:01.029Z,76.20
2022-08-03T14:41:28.158Z,77.10
2022-08-03T14:44:01.151Z,75.30
2022-08-03T14:46:29.546Z,76.00
2022-08-03T14:50:31.972Z,75.30
2022-08-03T14:51:53.696Z,75.70
2022-08-03T14:54:21.352Z,76.00
2022-08-03T14:56:49.511Z,76.40
2022-08-03T14:59:16.259Z,74.50
2022-08-03T15:02:04.848Z,75.10
2022-08-03T15:04:29.729Z,72.90
2022-08-03T15:06:56.439Z,75.10
2022-08-03T15:09:24.069Z,75.40
2022-08-03T15:11:51.083Z,75.20
2022-08-03T15:14:19.280Z,74.00
2022-08-03T15:16:49.041Z,73.60
2022-08-03T15:20:01.594Z,73.40
2022-08-03T15:22:02.695Z,73.30
2022-08-03T15:24:29.715Z,73.00
2022-08-03T15:26:56.451Z,73.20
2022-08-03T15:30:08.168Z,73.50
2022-08-03T15:32:09.940Z,73.60
2022-08-03T15:34:36.703Z,74.50
2022-08-03T15:37:15.080Z,73.00
2022-08-03T15:39:59.603Z,72.80
2022-08-03T15:42:31.153Z,73.30
2022-08-03T15:44:58.089Z,71.90
2022-08-03T15:47:25.065Z,72.10
2022-08-03T15:49:52.959Z,72.10
2022-08-03T15:52:19.948Z,71.50
2022-08-03T15:54:46.715Z,71.70
2022-08-03T15:57:13.507Z,72.30
2022-08-03T15:59:40.274Z,72.40
2022-08-03T16:02:07.069Z,71.80
2022-08-03T16:04:33.877Z,72.30
2022-08-03T16:07:00.672Z,72.50
2022-08-03T16:09:42.191Z,71.40
2022-08-03T16:12:14.437Z,71.90
2022-08-03T16:14:52.301Z,71.60
2022-08-03T16:17:20.778Z,71.50
2022-08-03T16:19:47.737Z,72.00
2022-08-03T16:22:14.718Z,72.20
2022-08-03T16:24:41.553Z,72.00
2022-08-03T16:27:15.556Z,72.00
2022-08-03T16:29:55.271Z,72.80
2022-08-03T16:32:22.114Z,72.60
2022-08-03T16:34:48.939Z,72.50
2022-08-03T16:37:37.515Z,72.90
2022-08-03T16:40:05.905Z,73.20
2022-08-03T16:42:35.241Z,73.70
2022-08-03T16:45:02.438Z,73.00
2022-08-03T16:47:29.278Z,73.50
2022-08-03T16:49:56.617Z,73.60
2022-08-03T16:52:26.523Z,73.90
2022-08-03T16:54:54.090Z,73.80
2022-08-03T16:57:55.911Z,73.50
2022-08-03T17:00:33.270Z,73.30
2022-08-03T17:03:04.170Z,74.20
2022-08-03T17:05:43.534Z,74.10
2022-08-03T17:08:13.669Z,73.90
2022-08-03T17:10:44.487Z,74.70
2022-08-03T17:13:21.582Z,74.50
2022-08-03T17:16:01.362Z,74.60
2022-08-03T17:18:35.313Z,73.50
2022-08-03T17:21:09.734Z,73.90
2022-08-03T17:23:48.508Z,74.10
2022-08-03T17:26:22.091Z,73.90
2022-08-03T17:28:58.081Z,74.70
2022-08-03T17:31:32.216Z,74.10
2022-08-03T17:34:08.310Z,74.20
2022-08-03T17:37:02.564Z,74.30
2022-08-03T17:39:48.440Z,74.60
2022-08-03T17:42:30.750Z,75.50
2022-08-03T17:45:02.458Z,75.50
2022-08-03T17:47:42.880Z,75.20
2022-08-03T17:50:28.746Z,75.20
2022-08-03T17:53:07.731Z,75.50
2022-08-03T17:55:54.863Z,75.70
2022-08-03T17:58:58.547Z,75.70
2022-08-03T18:02:09.542Z,75.00
2022-08-03T18:04:45.135Z,74.70
2022-08-03T18:07:25.518Z,74.20
2022-08-03T18:10:10.984Z,75.10
2022-08-03T18:12:45.086Z,74.90
2022-08-03T18:15:22.203Z,75.80
2022-08-03T18:17:58.174Z,74.40
2022-08-03T18:20:34.401Z,73.80
2022-08-03T18:23:06.062Z,74.20
2022-08-03T18:25:42.939Z,74.70
2022-08-03T18:28:18.710Z,75.20
2022-08-03T18:30:54.165Z,75.10
2022-08-03T18:34:16.483Z,74.90
2022-08-03T18:36:21.857Z,73.70
2022-08-03T18:39:01.817Z,74.70
2022-08-03T18:41:32.505Z,74.20
2022-08-03T18:47:01.525Z,74.30
2022-08-03T18:49:40.056Z,74.80
2022-08-03T18:52:20.663Z,75.40
2022-08-03T18:58:01.657Z,74.60
2022-08-03T19:00:42.332Z,75.20
2022-08-03T19:03:24.194Z,75.10
2022-08-03T19:06:02.669Z,74.90
2022-08-03T19:08:45.376Z,75.20
2022-08-03T19:11:28.267Z,75.10
2022-08-03T19:14:02.215Z,75.30
2022-08-03T19:16:38.824Z,75.30
2022-08-03T19:19:14.524Z,75.40
2022-08-03T19:21:41.739Z,75.60
2022-08-03T19:24:10.045Z,76.00
2022-08-03T19:26:39.689Z,75.60
2022-08-03T19:29:10.768Z,75.30
2022-08-03T19:31:59.090Z,75.70
2022-08-03T19:34:33.608Z,75.80
2022-08-03T19:37:04.771Z,75.90
2022-08-03T19:39:33.618Z,76.00
2022-08-03T19:42:07.952Z,76.00
2022-08-03T19:44:38.380Z,76.30
2022-08-03T19:47:16.759Z,76.60
2022-08-03T19:50:05.345Z,76.50
2022-08-03T19:52:36.331Z,76.50
2022-08-03T19:55:12.088Z,76.80
2022-08-03T19:57:44.083Z,76.90
2022-08-03T20:00:14.217Z,77.00
2022-08-03T20:02:42.091Z,76.90
2022-08-03T20:05:12.058Z,77.50
2022-08-03T20:07:47.440Z,77.10
2022-08-03T20:10:16.018Z,77.30
2022-08-03T20:12:44.473Z,78.10
2022-08-03T20:15:11.531Z,77.80
2022-08-03T20:17:55.607Z,77.80
2022-08-03T20:20:32.984Z,77.70
2022-08-03T20:23:02.896Z,78.30
2022-08-03T20:25:57.029Z,78.30
2022-08-03T20:28:50.233Z,78.20
2022-08-03T20:31:21.643Z,79.80
2022-08-03T20:33:50.635Z,80.10
2022-08-03T20:39:07.653Z,78.90
2022-08-03T20:41:38.299Z,79.40
2022-08-03T20:44:05.914Z,79.50
2022-08-03T20:46:41.733Z,79.30
2022-08-03T20:49:24.314Z,79.20
2022-08-03T20:51:53.120Z,80.80
2022-08-03T20:54:29.372Z,80.30
2022-08-03T20:57:04.152Z,80.00
2022-08-03T20:59:46.827Z,80.50
2022-08-03T21:02:19.895Z,80.70
2022-08-03T21:04:56.188Z,80.40
2022-08-03T21:07:25.113Z,80.30
2022-08-03T21:10:15.355Z,80.90
2022-08-03T21:12:53.556Z,81.10
2022-08-03T21:12:59.026Z,74.60
2022-08-03T21:13:00.961Z,75.60
2022-08-03T21:13:07.170Z,79.70
2022-08-03T21:16:03.158Z,81.50
2022-08-03T21:18:17.709Z,81.50
2022-08-03T21:20:46.058Z,81.50
2022-08-03T21:23:39.899Z,81.90
2022-08-03T21:26:01.619Z,81.40
2022-08-03T21:28:29.493Z,81.50
2022-08-03T21:30:58.560Z,82.10
2022-08-03T21:33:27.824Z,82.40
2022-08-03T21:35:54.626Z,82.10
2022-08-03T21:38:29.986Z,82.00
2022-08-03T21:40:57.160Z,82.40
2022-08-03T21:43:24.592Z,82.80
2022-08-03T21:45:59.840Z,82.40
2022-08-03T21:48:28.015Z,82.90
2022-08-03T21:50:54.735Z,82.80
2022-08-03T21:53:24.099Z,83.10
2022-08-03T21:55:57.755Z,83.30
2022-08-03T21:58:50.959Z,83.40
2022-08-03T22:01:20.690Z,83.70
2022-08-03T22:03:53.227Z,83.50
2022-08-03T22:06:22.157Z,84.30
2022-08-03T22:08:50.818Z,83.90
2022-08-03T22:11:17.512Z,84.00
2022-08-03T22:13:44.722Z,83.80
2022-08-03T22:16:11.885Z,84.00
2022-08-03T22:18:41.126Z,84.40
2022-08-03T22:21:11.498Z,84.40
2022-08-03T22:23:45.837Z,84.50
2022-08-03T22:26:34.640Z,84.50
2022-08-03T22:29:07.439Z,84.50
2022-08-03T22:31:58.698Z,84.40
2022-08-03T22:34:26.862Z,84.80
2022-08-03T22:36:57.325Z,85.10
2022-08-03T22:39:29.222Z,85.20
2022-08-03T22:41:59.512Z,85.00
2022-08-03T22:44:27.365Z,85.10
2022-08-03T22:46:54.573Z,85.40
2022-08-03T22:49:22.610Z,84.80
2022-08-03T22:51:51.668Z,85.60
2022-08-03T22:54:18.694Z,85.60
2022-08-03T22:56:47.033Z,85.70
2022-08-03T22:59:39.141Z,85.60
2022-08-03T23:02:20.073Z,85.90
2022-08-03T23:04:51.586Z,86.50
2022-08-03T23:07:25.697Z,85.90
2022-08-03T23:09:52.930Z,86.10
2022-08-03T23:12:20.256Z,86.20
2022-08-03T23:14:55.213Z,86.00
2022-08-03T23:17:24.387Z,86.00
2022-08-03T23:19:52.759Z,86.70
2022-08-03T23:22:30.101Z,86.70
2022-08-03T23:24:58.905Z,86.30
2022-08-03T23:27:27.436Z,86.90
2022-08-03T23:29:57.431Z,87.10
2022-08-03T23:32:26.155Z,86.90
2022-08-03T23:35:15.333Z,87.10
2022-08-03T23:38:03.927Z,86.80
2022-08-03T23:40:30.959Z,87.30
2022-08-03T23:43:00.104Z,87.20
2022-08-03T23:45:28.110Z,87.10
2022-08-03T23:47:55.208Z,87.40
2022-08-03T23:50:22.254Z,87.70
2022-08-03T23:52:53.234Z,87.80
2022-08-03T23:55:45.196Z,87.80
2022-08-03T23:58:30.848Z,87.80
